Time;durP1;ratioP1;P1;durP2;ratioP2;P2;SDS_P1;SDS_P2;PMS_P1;PMS_P2;Temp;Humidity;BMP_temperature;BMP_pressure;BME280_temperature;BME280_humidity;BME280_pressure;Samples;Min_cycle;Max_cycle;Signal;HPM_P1;HPM_P2
2021/04/02 00:00:53;;;;;;;8.10;6.37;;;9.60;98.30;;;;;;4179119;28;20459;-80
2021/04/02 00:02:55;;;;;;;31.97;20.20;;;9.60;98.30;;;;;;4180296;28;20493;-81
2021/04/02 00:04:57;;;;;;;53.70;31.97;;;9.60;98.30;;;;;;4179818;28;20463;-81
2021/04/02 00:06:59;;;;;;;113.23;59.80;;;9.40;98.30;;;;;;4181566;28;20474;-81
2021/04/02 00:09:01;;;;;;;54.83;32.50;;;9.30;98.30;;;;;;4182434;28;20488;-80
2021/04/02 00:11:06;;;;;;;15.30;10.40;;;9.30;98.30;;;;;;4179108;28;20463;-80
2021/04/02 00:13:08;;;;;;;14.20;9.87;;;9.30;98.30;;;;;;4180795;28;20513;-80
2021/04/02 00:15:13;;;;;;;13.60;8.93;;;9.30;98.30;;;;;;4179624;28;20499;-80
2021/04/02 00:17:15;;;;;;;14.40;8.93;;;9.30;98.30;;;;;;4182290;28;20466;-80
2021/04/02 00:19:17;;;;;;;13.27;9.40;;;9.30;98.30;;;;;;4180568;28;20496;-80
2021/04/02 00:21:19;;;;;;;16.93;11.27;;;9.30;98.30;;;;;;4182908;28;20508;-80
2021/04/02 00:23:22;;;;;;;17.43;10.33;;;9.30;98.30;;;;;;4180769;28;20475;-80
2021/04/02 00:25:24;;;;;;;14.20;10.10;;;9.40;98.30;;;;;;4179566;28;20496;-80
2021/04/02 00:27:26;;;;;;;27.60;13.10;;;9.50;98.30;;;;;;4183398;28;21038;-81
2021/04/02 00:29:27;;;;;;;29.30;13.70;;;9.50;98.30;;;;;;4182609;28;20509;-81
2021/04/02 00:31:29;;;;;;;25.10;13.20;;;9.50;98.30;;;;;;4181907;28;20488;-81
2021/04/02 00:33:33;;;;;;;21.80;13.87;;;9.40;98.30;;;;;;4179044;28;21097;-80
2021/04/02 00:35:36;;;;;;;23.33;13.80;;;9.40;98.30;;;;;;4182854;28;20494;-80
2021/04/02 00:37:39;;;;;;;19.20;12.93;;;9.30;98.30;;;;;;4180497;28;20464;-81
2021/04/02 00:39:41;;;;;;;19.87;13.07;;;9.40;98.30;;;;;;4179986;28;20480;-80
2021/04/02 00:41:43;;;;;;;19.33;12.00;;;9.40;98.30;;;;;;4181689;28;20470;-80
2021/04/02 00:43:49;;;;;;;26.07;12.50;;;9.60;98.30;;;;;;4181044;28;20465;-80
2021/04/02 00:45:51;;;;;;;20.30;12.70;;;9.50;98.30;;;;;;4181488;28;20467;-80
2021/04/02 00:47:54;;;;;;;18.57;13.20;;;9.60;98.30;;;;;;4181675;28;20521;-81
2021/04/02 00:49:56;;;;;;;19.47;13.10;;;9.60;98.30;;;;;;4180575;28;20484;-80
2021/04/02 00:51:58;;;;;;;22.93;14.67;;;9.60;98.30;;;;;;4181042;28;20471;-80
2021/04/02 00:54:00;;;;;;;19.27;12.73;;;9.60;98.30;;;;;;4179153;28;20475;-80
2021/04/02 00:56:04;;;;;;;19.13;11.20;;;9.60;98.30;;;;;;4182422;28;21133;-80
2021/04/02 00:58:09;;;;;;;19.63;13.50;;;9.50;98.30;;;;;;4186187;28;20455;-81
2021/04/02 01:00:13;;;;;;;19.13;13.17;;;9.40;98.30;;;;;;4182178;28;20466;-81
2021/04/02 01:02:14;;;;;;;20.80;13.60;;;9.40;98.30;;;;;;4184341;28;20462;-80
2021/04/02 01:04:16;;;;;;;20.73;12.83;;;9.30;98.30;;;;;;4183203;28;20466;-81
2021/04/02 01:06:21;;;;;;;18.63;12.40;;;9.40;98.30;;;;;;4184396;28;20481;-80
2021/04/02 01:08:24;;;;;;;18.00;11.67;;;9.40;98.30;;;;;;4183503;28;20513;-81
2021/04/02 01:10:29;;;;;;;76.40;42.77;;;9.50;98.30;;;;;;4184163;28;20479;-80
2021/04/02 01:12:33;;;;;;;88.90;45.03;;;9.40;98.30;;;;;;4182359;28;20480;-81
2021/04/02 01:14:35;;;;;;;62.70;32.00;;;9.30;98.30;;;;;;4180840;28;20471;-81
2021/04/02 01:16:38;;;;;;;31.53;17.80;;;9.30;98.30;;;;;;4182752;28;20467;-81
2021/04/02 01:18:46;;;;;;;23.70;14.30;;;9.30;98.30;;;;;;4181344;28;20460;-81
2021/04/02 01:20:50;;;;;;;23.33;12.50;;;9.20;98.30;;;;;;4185744;28;20454;-81
2021/04/02 01:22:54;;;;;;;26.53;12.47;;;9.20;98.30;;;;;;4184840;28;20466;-80
2021/04/02 01:25:14;;;;;;;20.60;12.00;;;9.30;98.30;;;;;;4185411;28;20454;-80
2021/04/02 01:27:30;;;;;;;23.80;11.70;;;9.30;98.30;;;;;;4181732;28;20469;-80
2021/04/02 01:29:53;;;;;;;15.53;11.20;;;9.10;98.30;;;;;;4181852;28;20530;-80
2021/04/02 01:31:58;;;;;;;21.17;11.27;;;9.00;98.30;;;;;;4181849;28;20496;-80
2021/04/02 01:34:01;;;;;;;47.93;12.50;;;9.20;98.30;;;;;;4179888;28;20471;-81
2021/04/02 01:36:05;;;;;;;15.40;10.87;;;9.20;98.30;;;;;;4182085;28;20478;-81
2021/04/02 01:38:11;;;;;;;39.80;12.07;;;9.10;98.30;;;;;;4180704;28;20472;-81
2021/04/02 01:40:14;;;;;;;31.90;12.33;;;9.30;98.30;;;;;;4181928;28;20488;-80
2021/04/02 01:42:20;;;;;;;31.80;11.97;;;9.10;98.30;;;;;;4180840;28;20495;-80
2021/04/02 01:44:24;;;;;;;66.40;13.97;;;9.00;98.30;;;;;;4179646;28;20455;-80
2021/04/02 01:46:27;;;;;;;120.90;54.43;;;8.90;98.30;;;;;;4184760;28;20467;-81
2021/04/02 01:48:30;;;;;;;198.87;78.87;;;8.90;98.30;;;;;;4183091;28;20544;-80
2021/04/02 01:50:36;;;;;;;91.23;33.60;;;8.90;98.30;;;;;;4181701;28;20497;-81
2021/04/02 01:52:39;;;;;;;41.97;14.60;;;8.80;98.30;;;;;;4181737;28;20467;-81
2021/04/02 01:54:43;;;;;;;36.63;12.90;;;8.90;98.30;;;;;;4182574;28;20519;-81
2021/04/02 01:56:47;;;;;;;43.73;12.20;;;8.90;98.30;;;;;;4179406;28;20475;-81
2021/04/02 01:58:51;;;;;;;69.67;12.90;;;8.80;98.30;;;;;;4179932;28;20480;-81
2021/04/02 02:00:56;;;;;;;34.33;11.60;;;8.70;98.30;;;;;;4183144;28;20495;-80
2021/04/02 02:03:00;;;;;;;27.77;11.77;;;8.60;98.30;;;;;;4179933;28;20485;-80
2021/04/02 02:05:04;;;;;;;34.87;13.00;;;8.60;98.30;;;;;;4182058;28;20477;-81
2021/04/02 02:07:08;;;;;;;44.20;11.83;;;8.60;98.30;;;;;;4181654;28;20495;-81
2021/04/02 02:09:11;;;;;;;35.30;11.63;;;8.70;98.30;;;;;;4182395;28;20512;-81
2021/04/02 02:11:16;;;;;;;31.70;12.47;;;8.70;98.30;;;;;;4184168;28;20481;-81
2021/04/02 02:13:19;;;;;;;36.23;12.53;;;8.60;98.30;;;;;;4182809;28;20483;-81
2021/04/02 02:15:20;;;;;;;29.63;12.43;;;8.70;98.30;;;;;;4182176;28;20491;-81
2021/04/02 02:17:24;;;;;;;27.93;10.87;;;8.70;98.30;;;;;;4180688;28;20492;-81
2021/04/02 02:19:31;;;;;;;37.77;11.37;;;8.70;98.30;;;;;;4180187;28;20491;-81
2021/04/02 02:21:33;;;;;;;33.77;11.37;;;8.60;98.30;;;;;;4175412;28;20492;-80
2021/04/02 02:23:35;;;;;;;37.60;12.40;;;8.50;98.30;;;;;;4179022;28;20483;-80
2021/04/02 02:25:38;;;;;;;37.00;11.63;;;8.30;98.30;;;;;;4175402;28;20480;-80
2021/04/02 02:27:40;;;;;;;22.10;9.67;;;8.20;98.30;;;;;;4178487;28;20483;-80
2021/04/02 02:29:42;;;;;;;28.23;8.93;;;8.20;98.30;;;;;;4175988;28;20496;-80
2021/04/02 02:31:44;;;;;;;23.87;9.70;;;8.00;98.30;;;;;;4177093;28;20480;-80
2021/04/02 02:33:46;;;;;;;30.60;11.07;;;7.80;98.30;;;;;;4180286;28;20487;-80
2021/04/02 02:35:49;;;;;;;15.57;8.13;;;7.80;98.30;;;;;;4178737;28;20485;-80
2021/04/02 02:37:51;;;;;;;38.20;12.37;;;7.90;98.30;;;;;;4176293;28;20499;-81
2021/04/02 02:39:53;;;;;;;17.80;9.53;;;8.10;98.30;;;;;;4179441;28;21277;-80
2021/04/02 02:41:56;;;;;;;31.70;10.30;;;8.20;98.30;;;;;;4181628;28;20492;-81
2021/04/02 02:43:58;;;;;;;32.63;10.90;;;8.30;98.30;;;;;;4179149;28;20511;-81
2021/04/02 02:46:00;;;;;;;19.33;10.23;;;8.30;98.30;;;;;;4180454;28;20493;-81
2021/04/02 02:48:03;;;;;;;25.80;9.73;;;8.20;98.30;;;;;;4182075;28;20503;-81
2021/04/02 02:50:08;;;;;;;26.93;11.70;;;8.20;98.30;;;;;;4180845;28;21002;-81
2021/04/02 02:52:11;;;;;;;15.07;9.37;;;8.10;98.30;;;;;;4181945;28;20484;-81
2021/04/02 02:54:17;;;;;;;24.60;9.40;;;8.10;98.30;;;;;;4179770;28;20547;-80
2021/04/02 02:56:20;;;;;;;30.87;9.87;;;8.10;98.30;;;;;;4180596;28;20484;-81
2021/04/02 02:58:25;;;;;;;22.33;10.00;;;7.60;98.30;;;;;;4180012;28;20484;-81
2021/04/02 03:00:32;;;;;;;19.87;9.40;;;7.70;98.30;;;;;;4179966;28;20491;-81
2021/04/02 03:02:36;;;;;;;26.13;9.07;;;7.80;98.30;;;;;;4178275;28;20996;-81
2021/04/02 03:04:41;;;;;;;17.73;8.40;;;7.90;98.30;;;;;;4180583;28;20528;-81
2021/04/02 03:06:45;;;;;;;17.97;9.10;;;7.80;98.30;;;;;;4179467;28;20480;-81
2021/04/02 03:08:52;;;;;;;24.70;9.00;;;7.70;98.30;;;;;;4182433;28;20477;-81
2021/04/02 03:10:55;;;;;;;22.57;8.77;;;7.50;98.30;;;;;;4181518;28;20592;-82
2021/04/02 03:12:58;;;;;;;55.53;11.10;;;7.30;98.30;;;;;;4182712;28;20595;-81
2021/04/02 03:15:01;;;;;;;15.03;9.10;;;7.30;98.30;;;;;;4181840;28;20506;-81
2021/04/02 03:17:06;;;;;;;35.60;10.60;;;7.30;98.30;;;;;;4179011;28;20479;-81
2021/04/02 03:19:09;;;;;;;25.63;9.50;;;7.10;98.30;;;;;;4180627;28;20490;-81
2021/04/02 03:21:12;;;;;;;15.43;8.00;;;7.00;98.30;;;;;;4178109;28;20496;-80
2021/04/02 03:23:16;;;;;;;18.53;9.30;;;7.30;98.30;;;;;;4177907;28;20486;-81
2021/04/02 03:25:22;;;;;;;22.10;10.60;;;7.20;98.30;;;;;;4177482;28;20489;-81
2021/04/02 03:27:25;;;;;;;34.23;10.97;;;7.00;98.30;;;;;;4179953;28;20496;-81
2021/04/02 03:29:27;;;;;;;35.70;11.30;;;6.90;98.30;;;;;;4179584;28;20893;-81
2021/04/02 03:31:30;;;;;;;19.50;10.60;;;6.60;98.30;;;;;;4179152;28;21293;-81
2021/04/02 03:33:38;;;;;;;20.57;9.27;;;6.70;98.30;;;;;;4179962;28;20577;-82
2021/04/02 03:35:40;;;;;;;18.77;7.50;;;6.70;98.30;;;;;;4177212;28;20490;-81
2021/04/02 03:37:46;;;;;;;17.97;8.63;;;6.70;98.30;;;;;;4175561;28;20495;-82
2021/04/02 03:39:48;;;;;;;28.77;9.30;;;7.00;98.30;;;;;;4173842;28;20487;-82
2021/04/02 03:41:54;;;;;;;19.53;9.23;;;7.10;98.30;;;;;;4175087;28;20496;-81
2021/04/02 03:43:58;;;;;;;25.63;9.13;;;7.20;98.30;;;;;;4175220;28;20488;-81
2021/04/02 03:46:01;;;;;;;16.20;9.43;;;7.40;98.30;;;;;;4175401;28;20550;-82
2021/04/02 03:48:06;;;;;;;15.13;7.90;;;7.40;98.30;;;;;;4174062;28;20488;-81
2021/04/02 03:50:11;;;;;;;15.00;7.97;;;7.40;98.30;;;;;;4177986;28;20495;-81
2021/04/02 03:52:16;;;;;;;23.20;8.63;;;7.50;98.30;;;;;;4178647;28;20552;-81
2021/04/02 03:54:18;;;;;;;20.03;8.57;;;7.50;98.30;;;;;;4176997;28;20586;-80
2021/04/02 03:56:23;;;;;;;16.20;9.00;;;7.50;98.30;;;;;;4173282;28;20588;-80
2021/04/02 03:58:26;;;;;;;18.40;9.87;;;7.50;98.30;;;;;;4172875;28;20883;-81
2021/04/02 04:00:32;;;;;;;11.90;8.67;;;7.10;98.30;;;;;;4177994;28;20487;-81
2021/04/02 04:02:35;;;;;;;23.13;11.17;;;7.00;98.30;;;;;;4177424;28;20490;-82
2021/04/02 04:04:39;;;;;;;22.03;11.10;;;6.90;98.30;;;;;;4175856;28;20486;-81
2021/04/02 04:06:42;;;;;;;14.73;11.20;;;6.90;98.30;;;;;;4177879;28;20495;-81
2021/04/02 04:08:45;;;;;;;17.93;11.63;;;6.90;98.30;;;;;;4176361;28;20509;-82
2021/04/02 04:10:49;;;;;;;17.77;11.10;;;6.90;98.30;;;;;;4180949;28;20487;-81
2021/04/02 04:12:56;;;;;;;60.33;36.70;;;7.00;98.30;;;;;;4177019;28;21014;-81
2021/04/02 04:15:01;;;;;;;51.67;30.97;;;7.00;98.30;;;;;;4179941;28;20496;-81
2021/04/02 04:17:04;;;;;;;27.43;17.67;;;6.90;98.30;;;;;;4180598;28;21002;-81
2021/04/02 04:19:07;;;;;;;14.73;11.80;;;6.70;98.30;;;;;;4180822;28;20486;-82
2021/04/02 04:21:17;;;;;;;16.50;12.90;;;6.60;98.30;;;;;;4178823;28;20851;-81
2021/04/02 04:23:21;;;;;;;15.90;11.63;;;6.80;98.30;;;;;;4179853;28;20502;-82
2021/04/02 04:25:25;;;;;;;15.13;12.27;;;6.90;98.30;;;;;;4185620;28;20477;-81
2021/04/02 04:27:29;;;;;;;15.37;12.43;;;7.00;98.30;;;;;;4172885;28;20502;-81
2021/04/02 04:29:36;;;;;;;15.80;11.53;;;7.20;98.30;;;;;;4176883;28;20500;-81
2021/04/02 04:31:42;;;;;;;17.87;12.27;;;7.20;98.30;;;;;;4178187;28;20499;-81
2021/04/02 04:33:46;;;;;;;15.63;10.70;;;7.30;98.30;;;;;;4176174;28;20490;-81
2021/04/02 04:35:51;;;;;;;16.70;10.63;;;7.10;98.30;;;;;;4173962;28;20481;-81
2021/04/02 04:37:53;;;;;;;26.83;18.13;;;6.90;98.30;;;;;;4175091;28;21086;-81
2021/04/02 04:39:57;;;;;;;33.87;20.80;;;6.90;98.30;;;;;;4178917;28;20500;-81
2021/04/02 04:42:00;;;;;;;45.47;25.00;;;6.90;98.30;;;;;;4178601;28;20510;-81
2021/04/02 04:44:04;;;;;;;21.93;16.57;;;7.00;98.30;;;;;;4175501;28;20570;-81
2021/04/02 04:46:06;;;;;;;20.80;14.03;;;7.00;98.30;;;;;;4178051;28;20570;-81
2021/04/02 04:48:09;;;;;;;26.27;14.93;;;6.90;98.30;;;;;;4175132;28;20495;-81
2021/04/02 04:50:13;;;;;;;26.87;16.30;;;6.70;98.30;;;;;;4174660;28;20815;-81
2021/04/02 04:52:17;;;;;;;29.20;15.77;;;6.70;98.30;;;;;;4178651;28;21110;-81
2021/04/02 04:54:23;;;;;;;25.50;16.27;;;6.70;98.30;;;;;;4175890;28;20490;-82
2021/04/02 04:56:28;;;;;;;26.03;17.47;;;6.60;98.30;;;;;;4177590;28;20491;-81
2021/04/02 04:58:32;;;;;;;22.27;15.77;;;6.60;98.30;;;;;;4174687;28;20556;-82
2021/04/02 05:00:35;;;;;;;23.37;16.77;;;6.70;98.30;;;;;;4177926;28;20515;-82
2021/04/02 05:02:42;;;;;;;21.50;14.03;;;6.80;98.30;;;;;;4177643;28;20502;-82
2021/04/02 05:04:45;;;;;;;21.23;12.77;;;6.90;98.30;;;;;;4178754;28;20488;-81
2021/04/02 05:06:51;;;;;;;12.90;10.37;;;6.90;98.30;;;;;;4177424;28;20499;-82
2021/04/02 05:08:54;;;;;;;14.50;11.70;;;6.90;98.30;;;;;;4175313;28;20857;-81
2021/04/02 05:10:57;;;;;;;13.13;10.30;;;6.80;98.30;;;;;;4179791;28;20495;-81
2021/04/02 05:13:00;;;;;;;17.00;11.73;;;6.80;98.30;;;;;;4178890;28;20571;-81
2021/04/02 05:15:04;;;;;;;19.03;10.60;;;6.70;98.30;;;;;;4180075;28;20494;-81
2021/04/02 05:17:06;;;;;;;14.53;11.30;;;6.80;98.30;;;;;;4179241;28;20500;-82
2021/04/02 05:19:09;;;;;;;18.23;12.00;;;6.70;98.30;;;;;;4177788;28;20514;-81
2021/04/02 05:21:12;;;;;;;13.63;11.37;;;6.80;98.30;;;;;;4178026;28;20489;-81
2021/04/02 05:23:16;;;;;;;12.50;9.70;;;6.90;98.30;;;;;;4177524;28;20863;-81
2021/04/02 05:25:18;;;;;;;19.13;9.97;;;7.00;98.30;;;;;;4178174;28;20486;-81
2021/04/02 05:27:20;;;;;;;14.97;9.73;;;6.90;98.30;;;;;;4176866;28;20504;-81
2021/04/02 05:29:22;;;;;;;14.87;10.60;;;7.10;98.30;;;;;;4176525;28;20578;-81
2021/04/02 05:31:24;;;;;;;14.13;10.07;;;7.10;98.30;;;;;;4180905;28;22068;-80
2021/04/02 05:33:46;;;;;;;12.40;9.70;;;7.20;98.30;;;;;;4178233;28;20475;-81
2021/04/02 05:35:48;;;;;;;11.37;8.40;;;7.30;98.30;;;;;;4174500;28;21059;-81
2021/04/02 05:37:50;;;;;;;15.50;8.70;;;7.30;98.30;;;;;;4171681;28;20519;-81
2021/04/02 05:39:52;;;;;;;14.50;9.17;;;7.20;98.30;;;;;;4173673;28;20487;-81
2021/04/02 05:42:01;;;;;;;12.90;8.40;;;7.20;98.30;;;;;;4173168;28;20859;-81
2021/04/02 05:44:06;;;;;;;13.93;8.17;;;7.10;98.30;;;;;;4171299;28;20484;-81
2021/04/02 05:46:12;;;;;;;11.90;8.27;;;7.10;98.30;;;;;;4171323;28;20492;-80
2021/04/02 05:48:16;;;;;;;15.17;7.50;;;7.10;98.30;;;;;;4179945;28;20526;-82
2021/04/02 05:50:19;;;;;;;9.90;7.23;;;7.10;98.30;;;;;;4177804;28;20869;-81
2021/04/02 05:52:23;;;;;;;17.00;8.00;;;7.10;98.30;;;;;;4175808;28;20484;-81
2021/04/02 05:54:30;;;;;;;14.50;8.00;;;7.10;98.30;;;;;;4174546;28;20613;-81
2021/04/02 05:56:32;;;;;;;13.07;8.03;;;7.20;98.30;;;;;;4174996;28;21242;-81
2021/04/02 05:58:35;;;;;;;14.07;7.80;;;7.30;98.30;;;;;;4176620;28;20544;-81
2021/04/02 06:00:38;;;;;;;11.53;8.40;;;7.40;98.30;;;;;;4178109;28;21029;-81
2021/04/02 06:02:40;;;;;;;14.97;7.93;;;7.30;98.30;;;;;;4179110;28;20549;-80
2021/04/02 06:04:42;;;;;;;9.97;6.60;;;7.30;98.30;;;;;;4172942;28;20478;-81
2021/04/02 06:06:45;;;;;;;12.30;8.03;;;7.10;98.30;;;;;;4175153;28;20496;-81
2021/04/02 06:08:48;;;;;;;11.43;7.40;;;7.10;98.30;;;;;;4178299;28;20494;-81
2021/04/02 06:10:51;;;;;;;14.37;8.27;;;7.10;98.30;;;;;;4178262;28;20509;-80
2021/04/02 06:12:55;;;;;;;13.23;7.80;;;7.20;98.30;;;;;;4175538;28;20495;-81
2021/04/02 06:14:57;;;;;;;9.80;7.10;;;7.10;98.30;;;;;;4175664;28;20495;-81
2021/04/02 06:16:59;;;;;;;11.43;7.13;;;7.20;98.30;;;;;;4176648;28;20484;-81
2021/04/02 06:19:06;;;;;;;11.30;6.43;;;7.20;98.30;;;;;;4175758;28;20615;-80
2021/04/02 06:21:09;;;;;;;16.47;7.53;;;7.20;98.30;;;;;;4176821;28;20491;-81
2021/04/02 06:23:13;;;;;;;11.20;8.03;;;7.20;98.30;;;;;;4174117;28;21163;-81
2021/04/02 06:25:18;;;;;;;13.10;7.33;;;7.20;98.30;;;;;;4173676;28;21170;-81
2021/04/02 06:27:21;;;;;;;12.07;8.00;;;7.30;98.30;;;;;;4177000;28;20503;-81
2021/04/02 06:29:23;;;;;;;12.93;6.60;;;7.30;98.30;;;;;;4176767;28;20509;-81
2021/04/02 06:31:25;;;;;;;8.20;5.20;;;7.30;98.30;;;;;;4176240;28;20489;-81
2021/04/02 06:33:32;;;;;;;11.67;5.53;;;7.40;98.30;;;;;;4176761;28;20488;-81
2021/04/02 06:35:36;;;;;;;12.10;5.70;;;7.50;98.30;;;;;;4174807;28;20493;-82
2021/04/02 06:37:40;;;;;;;13.23;5.17;;;7.50;98.30;;;;;;4179301;28;21007;-80
2021/04/02 06:39:49;;;;;;;7.20;5.50;;;7.50;98.30;;;;;;4177050;28;20821;-81
2021/04/02 06:41:54;;;;;;;12.60;4.83;;;7.70;98.30;;;;;;4176750;28;20550;-81
2021/04/02 06:43:58;;;;;;;12.10;5.63;;;7.70;98.30;;;;;;4178951;28;20479;-81
2021/04/02 06:46:04;;;;;;;75.43;35.90;;;7.50;98.30;;;;;;4179070;28;20492;-82
2021/04/02 06:48:11;;;;;;;42.93;21.57;;;7.60;98.30;;;;;;4177324;28;20497;-82
2021/04/02 06:50:21;;;;;;;37.43;17.80;;;7.60;98.30;;;;;;4177675;28;21003;-82
2021/04/02 06:52:24;;;;;;;22.43;13.67;;;7.70;98.30;;;;;;4176266;28;20480;-81
2021/04/02 06:54:27;;;;;;;18.50;8.90;;;7.80;98.30;;;;;;4176985;28;20493;-81
2021/04/02 06:56:31;;;;;;;16.70;7.90;;;7.90;98.30;;;;;;4171519;28;20489;-81
2021/04/02 06:58:37;;;;;;;15.00;8.20;;;7.80;98.30;;;;;;4182034;28;20487;-81
2021/04/02 07:00:42;;;;;;;12.20;7.93;;;7.70;98.30;;;;;;4175156;28;20499;-82
2021/04/02 07:02:45;;;;;;;18.37;11.27;;;7.70;98.30;;;;;;4179684;28;20487;-82
2021/04/02 07:04:50;;;;;;;45.90;24.83;;;7.50;98.30;;;;;;4179342;28;20499;-82
2021/04/02 07:06:53;;;;;;;16.23;6.90;;;7.40;98.30;;;;;;4180721;28;20489;-82
2021/04/02 07:08:57;;;;;;;13.10;5.63;;;7.60;98.30;;;;;;4178988;28;20500;-82
2021/04/02 07:11:00;;;;;;;14.13;6.07;;;7.60;98.30;;;;;;4179154;28;20523;-82
2021/04/02 07:13:04;;;;;;;14.73;5.30;;;7.60;98.30;;;;;;4177016;28;20515;-82
2021/04/02 07:15:09;;;;;;;7.73;4.63;;;7.60;98.30;;;;;;4172799;28;20611;-81
2021/04/02 07:17:12;;;;;;;10.47;4.53;;;7.70;98.30;;;;;;4176431;28;20486;-82
2021/04/02 07:19:15;;;;;;;5.77;4.17;;;7.80;98.30;;;;;;4173019;28;20965;-82
2021/04/02 07:21:17;;;;;;;13.13;6.30;;;7.80;98.30;;;;;;4174616;28;20570;-81
2021/04/02 07:23:20;;;;;;;7.43;4.57;;;7.90;98.30;;;;;;4178186;28;20515;-81
2021/04/02 07:25:22;;;;;;;13.20;4.90;;;7.90;98.30;;;;;;4178643;28;20496;-81
2021/04/02 07:27:25;;;;;;;11.33;5.40;;;7.90;98.30;;;;;;4176532;28;21059;-82
2021/04/02 07:29:28;;;;;;;12.53;4.97;;;7.80;98.30;;;;;;4179286;28;20484;-82
2021/04/02 07:31:33;;;;;;;8.50;4.80;;;7.90;98.30;;;;;;4180431;28;20935;-81
2021/04/02 07:33:37;;;;;;;6.27;3.93;;;8.00;98.30;;;;;;4178104;28;20893;-81
2021/04/02 07:35:40;;;;;;;12.60;5.00;;;7.80;98.30;;;;;;4174234;28;20487;-82
2021/04/02 07:37:42;;;;;;;7.53;4.50;;;7.80;98.30;;;;;;4183687;28;20579;-82
2021/04/02 07:39:47;;;;;;;8.90;4.30;;;7.90;98.30;;;;;;4181277;28;20489;-82
2021/04/02 07:41:52;;;;;;;19.80;9.97;;;7.90;98.30;;;;;;4183267;28;20924;-81
2021/04/02 07:43:57;;;;;;;29.73;12.03;;;7.90;98.30;;;;;;4184026;28;20493;-81
2021/04/02 07:46:01;;;;;;;34.13;16.13;;;7.90;98.30;;;;;;4180569;28;20481;-80
2021/04/02 07:48:16;;;;;;;12.43;6.50;;;8.00;98.30;;;;;;4183807;28;20489;-81
2021/04/02 07:50:34;;;;;;;8.53;4.73;;;8.00;98.30;;;;;;4182934;28;20488;-81
2021/04/02 07:52:39;;;;;;;14.20;5.53;;;8.20;98.30;;;;;;4181593;28;20487;-81
2021/04/02 07:54:45;;;;;;;15.67;5.30;;;8.10;98.30;;;;;;4182470;28;20547;-81
2021/04/02 07:56:49;;;;;;;9.20;3.97;;;8.00;98.30;;;;;;4183244;28;20493;-81
2021/04/02 07:58:52;;;;;;;10.27;3.40;;;8.10;98.30;;;;;;4181031;28;20493;-80
2021/04/02 08:00:56;;;;;;;5.97;3.73;;;8.20;98.30;;;;;;4180273;28;20743;-82
2021/04/02 08:03:11;;;;;;;12.23;4.30;;;8.10;98.30;;;;;;4182384;28;20489;-81
2021/04/02 08:05:15;;;;;;;14.13;3.93;;;8.30;98.30;;;;;;4180854;28;20477;-81
2021/04/02 08:07:19;;;;;;;14.63;3.90;;;8.40;98.30;;;;;;4180663;28;20492;-81
2021/04/02 08:09:22;;;;;;;9.90;4.00;;;8.40;98.30;;;;;;4180845;28;20488;-81
2021/04/02 08:11:35;;;;;;;14.97;4.60;;;8.30;98.30;;;;;;4181290;28;20476;-81
2021/04/02 08:13:52;;;;;;;48.27;22.70;;;8.30;98.30;;;;;;4180113;28;20487;-81
2021/04/02 08:15:56;;;;;;;24.70;13.50;;;8.50;98.30;;;;;;4181700;28;20498;-81
2021/04/02 08:17:58;;;;;;;12.30;5.27;;;8.60;98.30;;;;;;4179519;28;20580;-81
2021/04/02 08:20:04;;;;;;;9.70;4.47;;;8.70;98.30;;;;;;4174170;28;21092;-81
2021/04/02 08:22:07;;;;;;;11.20;5.57;;;8.70;98.30;;;;;;4172713;28;20491;-79
2021/04/02 08:24:12;;;;;;;12.27;4.90;;;8.80;98.30;;;;;;4173740;28;20488;-81
2021/04/02 08:26:14;;;;;;;8.33;4.30;;;8.70;98.30;;;;;;4175798;28;20499;-81
2021/04/02 08:28:18;;;;;;;14.07;3.80;;;8.80;98.30;;;;;;4176120;28;20629;-81
2021/04/02 08:30:20;;;;;;;30.13;13.67;;;8.80;98.30;;;;;;4177298;28;20467;-82
2021/04/02 08:32:22;;;;;;;18.77;7.10;;;8.70;98.30;;;;;;4172873;28;21011;-82
2021/04/02 08:34:26;;;;;;;17.90;7.80;;;8.60;98.30;;;;;;4178362;28;20854;-81
2021/04/02 08:36:29;;;;;;;12.43;4.33;;;8.60;98.30;;;;;;4171306;28;20514;-82
2021/04/02 08:38:32;;;;;;;9.17;4.30;;;8.70;98.30;;;;;;4177178;28;20488;-81
2021/04/02 08:40:35;;;;;;;8.27;3.17;;;8.70;98.30;;;;;;4173828;28;20484;-81
2021/04/02 08:42:37;;;;;;;10.53;4.00;;;8.50;98.30;;;;;;4176868;28;20487;-82
2021/04/02 08:44:41;;;;;;;10.30;4.40;;;8.50;98.30;;;;;;4175279;28;20498;-83
2021/04/02 08:46:45;;;;;;;16.53;4.90;;;8.50;98.30;;;;;;4174193;28;20986;-80
2021/04/02 08:48:47;;;;;;;12.87;3.93;;;8.70;98.30;;;;;;4170570;28;20487;-80
2021/04/02 08:50:50;;;;;;;14.93;4.93;;;8.60;98.30;;;;;;4169362;28;20507;-80
2021/04/02 08:53:01;;;;;;;12.10;4.37;;;8.80;98.30;;;;;;4171755;28;20994;-81
2021/04/02 08:55:08;;;;;;;7.63;4.07;;;8.70;98.30;;;;;;4174251;28;20492;-82
2021/04/02 08:57:12;;;;;;;8.63;4.60;;;8.70;98.30;;;;;;4169647;28;20492;-80
2021/04/02 08:59:14;;;;;;;10.10;3.43;;;8.80;98.30;;;;;;4173788;28;20577;-80
2021/04/02 09:01:17;;;;;;;11.10;4.20;;;8.80;98.30;;;;;;4186779;28;20515;-79
2021/04/02 09:03:19;;;;;;;12.30;4.63;;;8.80;98.30;;;;;;4191584;28;20789;-79
2021/04/02 09:05:22;;;;;;;8.63;4.53;;;8.80;98.30;;;;;;4189124;28;20483;-79
2021/04/02 09:07:24;;;;;;;19.50;4.20;;;8.80;98.30;;;;;;4181968;28;20484;-83
2021/04/02 09:09:29;;;;;;;9.33;4.33;;;8.70;98.30;;;;;;4190784;28;20494;-79
2021/04/02 09:11:35;;;;;;;13.17;4.30;;;8.80;98.30;;;;;;4189399;28;20838;-79
2021/04/02 09:13:40;;;;;;;9.33;4.23;;;8.80;98.30;;;;;;4189010;28;21062;-79
2021/04/02 09:15:46;;;;;;;12.20;4.60;;;8.80;98.30;;;;;;4182646;28;20492;-80
2021/04/02 09:17:48;;;;;;;14.50;4.57;;;8.80;98.30;;;;;;4169882;28;20528;-81
2021/04/02 09:19:50;;;;;;;9.60;4.57;;;8.80;98.30;;;;;;4174486;28;20493;-81
2021/04/02 09:21:53;;;;;;;16.90;5.00;;;8.80;98.30;;;;;;4172174;28;20512;-81
2021/04/02 09:23:55;;;;;;;7.40;4.40;;;9.00;98.30;;;;;;4172543;28;20594;-83
2021/04/02 09:25:59;;;;;;;17.70;4.90;;;9.00;98.30;;;;;;4177030;28;20495;-82
2021/04/02 09:28:05;;;;;;;14.40;4.97;;;9.10;98.30;;;;;;4172619;28;20500;-80
2021/04/02 09:30:09;;;;;;;15.93;5.00;;;9.10;98.30;;;;;;4171449;28;20991;-80
2021/04/02 09:32:11;;;;;;;11.53;4.33;;;9.10;98.30;;;;;;4167988;28;20479;-82
2021/04/02 09:43:00;;;;;;;7.87;4.30;;;9.30;98.30;;;;;;4114201;28;21031;-86
2021/04/02 09:45:05;;;;;;;11.70;4.57;;;9.30;98.30;;;;;;4101116;28;21075;-85
2021/04/02 09:47:09;;;;;;;14.13;4.80;;;9.40;98.30;;;;;;4101997;29;21007;-86
2021/04/02 09:49:12;;;;;;;10.43;4.60;;;9.30;98.30;;;;;;4100853;29;20495;-86
2021/04/02 09:51:22;;;;;;;13.87;4.80;;;9.30;98.30;;;;;;4108038;28;20495;-86
2021/04/02 09:53:24;;;;;;;12.40;5.37;;;9.20;98.20;;;;;;4100295;29;20471;-85
2021/04/02 09:55:26;;;;;;;13.90;5.20;;;9.30;98.30;;;;;;4099876;28;20515;-85
2021/04/02 09:57:28;;;;;;;12.57;5.53;;;9.30;98.30;;;;;;4113617;28;20557;-85
2021/04/02 09:59:40;;;;;;;;;;;;;;;;;;;;;
2021/04/02 10:02:14;;;;;;;10.90;5.00;;;9.40;98.20;;;;;;4104446;28;20579;-89
2021/04/02 10:04:17;;;;;;;10.90;7.20;;;9.40;98.30;;;;;;4098032;28;20500;-86
2021/04/02 10:06:19;;;;;;;7.00;4.50;;;9.20;98.30;;;;;;4100508;29;20511;-85
2021/04/02 10:08:21;;;;;;;19.53;5.90;;;9.30;98.30;;;;;;4099715;29;20472;-87
2021/04/02 10:10:23;;;;;;;8.53;5.20;;;9.30;98.30;;;;;;4100022;29;20470;-86
2021/04/02 10:12:27;;;;;;;8.70;5.70;;;9.20;98.30;;;;;;4104087;28;20509;-86
2021/04/02 10:14:38;;;;;;;8.63;4.70;;;9.00;98.30;;;;;;4103063;28;20495;-86
2021/04/02 10:16:41;;;;;;;9.70;4.80;;;9.10;98.30;;;;;;4101481;28;20475;-87
2021/04/02 10:18:45;;;;;;;15.20;6.97;;;9.00;98.30;;;;;;4108649;28;20503;-86
2021/04/02 10:20:47;;;;;;;15.33;6.20;;;9.00;98.30;;;;;;4109836;28;20508;-86
2021/04/02 10:22:54;;;;;;;13.23;6.60;;;9.00;98.30;;;;;;4111350;28;20977;-88
2021/04/02 10:24:56;;;;;;;13.57;5.03;;;9.10;98.30;;;;;;4099848;28;20587;-86
2021/04/02 10:26:58;;;;;;;12.17;5.50;;;9.10;98.30;;;;;;4100408;29;20611;-86
2021/04/02 10:29:01;;;;;;;12.17;5.10;;;9.00;98.30;;;;;;4110364;28;20466;-86
2021/04/02 10:31:03;;;;;;;14.73;5.30;;;9.00;98.30;;;;;;4107587;28;20494;-86
2021/04/02 10:33:05;;;;;;;11.33;4.93;;;9.00;98.30;;;;;;4113109;28;20474;-86
2021/04/02 10:35:09;;;;;;;10.20;5.00;;;9.00;98.30;;;;;;4110981;28;20496;-84
2021/04/02 10:37:19;;;;;;;12.67;5.60;;;9.00;98.30;;;;;;4104271;28;20494;-85
2021/04/02 10:39:34;;;;;;;9.53;4.90;;;9.00;98.30;;;;;;4099863;29;20489;-84
2021/04/02 10:41:36;;;;;;;12.00;5.20;;;9.00;98.30;;;;;;4099474;29;20504;-85
2021/04/02 10:43:39;;;;;;;12.40;5.23;;;9.10;98.30;;;;;;4107565;28;20487;-84
2021/04/02 10:45:42;;;;;;;10.57;4.80;;;9.20;98.30;;;;;;4121866;28;20508;-85
2021/04/02 10:47:59;;;;;;;13.63;4.37;;;9.20;98.30;;;;;;4125863;28;21030;-84
2021/04/02 10:50:01;;;;;;;13.13;5.90;;;9.20;98.30;;;;;;4114607;28;20478;-85
2021/04/02 10:52:06;;;;;;;8.30;4.20;;;8.80;98.30;;;;;;4109199;28;20487;-85
2021/04/02 10:54:10;;;;;;;13.53;4.77;;;8.80;98.30;;;;;;4114083;28;20495;-85